sensor_id;sensor_type;location;lat;lon;timestamp;pressure;altitude;pressure_sealevel;temperature;humidity
63819;BME280;49970;54.976;73.248;2024-03-29T00:01:28;98684.28;;;2.41;100.00
63819;BME280;49970;54.976;73.248;2024-03-29T00:03:59;98683.44;;;2.41;100.00
63819;BME280;49970;54.976;73.248;2024-03-29T00:06:25;98664.16;;;2.29;99.98
63819;BME280;49970;54.976;73.248;2024-03-29T00:08:52;98687.84;;;2.40;100.00
63819;BME280;49970;54.976;73.248;2024-03-29T00:11:18;98680.94;;;2.39;100.00
63819;BME280;49970;54.976;73.248;2024-03-29T00:13:45;98682.81;;;2.37;100.00
63819;BME280;49970;54.976;73.248;2024-03-29T00:16:11;98681.13;;;2.36;100.00
63819;BME280;49970;54.976;73.248;2024-03-29T00:18:38;98678.53;;;2.36;100.00
63819;BME280;49970;54.976;73.248;2024-03-29T00:21:04;98676.94;;;2.34;100.00
63819;BME280;49970;54.976;73.248;2024-03-29T00:23:30;98682.91;;;2.36;100.00
63819;BME280;49970;54.976;73.248;2024-03-29T00:25:57;98683.75;;;2.36;100.00
63819;BME280;49970;54.976;73.248;2024-03-29T00:28:24;98680.41;;;2.34;100.00
63819;BME280;49970;54.976;73.248;2024-03-29T00:30:51;98678.53;;;2.36;100.00
63819;BME280;49970;54.976;73.248;2024-03-29T00:33:17;98681.13;;;2.36;100.00
63819;BME280;49970;54.976;73.248;2024-03-29T00:35:43;98684.56;;;2.37;100.00
63819;BME280;49970;54.976;73.248;2024-03-29T00:38:10;98664.44;;;2.24;100.00
63819;BME280;49970;54.976;73.248;2024-03-29T00:40:36;98676.19;;;2.32;100.00
63819;BME280;49970;54.976;73.248;2024-03-29T00:43:02;98673.47;;;2.33;100.00
63819;BME280;49970;54.976;73.248;2024-03-29T00:45:49;98679.53;;;2.34;100.00
63819;BME280;49970;54.976;73.248;2024-03-29T00:49:20;98673.59;;;2.32;100.00
63819;BME280;49970;54.976;73.248;2024-03-29T00:52:51;98673.78;;;2.29;100.00
63819;BME280;49970;54.976;73.248;2024-03-29T00:56:22;98669.59;;;2.26;100.00
63819;BME280;49970;54.976;73.248;2024-03-29T00:59:53;98667.91;;;2.25;100.00
63819;BME280;49970;54.976;73.248;2024-03-29T01:03:24;98663.63;;;2.24;100.00
63819;BME280;49970;54.976;73.248;2024-03-29T01:06:55;98664.56;;;2.23;100.00
63819;BME280;49970;54.976;73.248;2024-03-29T01:10:26;98661.94;;;2.23;100.00
63819;BME280;49970;54.976;73.248;2024-03-29T01:13:57;98666.34;;;2.22;100.00
63819;BME280;49970;54.976;73.248;2024-03-29T01:16:55;98667.34;;;2.20;100.00
63819;BME280;49970;54.976;73.248;2024-03-29T01:20:26;98661.47;;;2.16;100.00
63819;BME280;49970;54.976;73.248;2024-03-29T01:23:37;98663.91;;;2.19;100.00
63819;BME280;49970;54.976;73.248;2024-03-29T01:26:04;98667.34;;;2.20;100.00
63819;BME280;49970;54.976;73.248;2024-03-29T01:28:31;98657.31;;;2.14;100.00
63819;BME280;49970;54.976;73.248;2024-03-29T01:30:57;98665.59;;;2.20;100.00
63819;BME280;49970;54.976;73.248;2024-03-29T01:33:26;98661.41;;;2.18;100.00
63819;BME280;49970;54.976;73.248;2024-03-29T01:35:53;98668.31;;;2.19;100.00
63819;BME280;49970;54.976;73.248;2024-03-29T01:38:20;98671.84;;;2.18;100.00
63819;BME280;49970;54.976;73.248;2024-03-29T01:40:48;98677.91;;;2.18;100.00
63819;BME280;49970;54.976;73.248;2024-03-29T01:43:15;98674.75;;;2.13;100.00
63819;BME280;49970;54.976;73.248;2024-03-29T01:45:43;98671.38;;;2.11;100.00
63819;BME280;49970;54.976;73.248;2024-03-29T01:48:13;98677.38;;;2.13;100.00
63819;BME280;49970;54.976;73.248;2024-03-29T01:50:40;98676.50;;;2.13;100.00
63819;BME280;49970;54.976;73.248;2024-03-29T01:53:08;98676.72;;;2.10;100.00
63819;BME280;49970;54.976;73.248;2024-03-29T01:55:35;98684.75;;;2.07;100.00
63819;BME280;49970;54.976;73.248;2024-03-29T01:58:02;98679.53;;;2.07;100.00
63819;BME280;49970;54.976;73.248;2024-03-29T02:00:30;98677.19;;;2.02;100.00
63819;BME280;49970;54.976;73.248;2024-03-29T02:03:00;98680.81;;;1.99;100.00
63819;BME280;49970;54.976;73.248;2024-03-29T02:05:28;98685.31;;;1.97;100.00
63819;BME280;49970;54.976;73.248;2024-03-29T02:07:55;98689.72;;;1.97;100.00
63819;BME280;49970;54.976;73.248;2024-03-29T02:10:22;98688.09;;;1.94;100.00
63819;BME280;49970;54.976;73.248;2024-03-29T02:12:49;98685.59;;;1.93;100.00
63819;BME280;49970;54.976;73.248;2024-03-29T02:15:15;98696.13;;;1.91;100.00
63819;BME280;49970;54.976;73.248;2024-03-29T02:17:44;98696.41;;;1.87;100.00
63819;BME280;49970;54.976;73.248;2024-03-29T02:20:11;98693.06;;;1.85;100.00
63819;BME280;49970;54.976;73.248;2024-03-29T02:22:41;98699.97;;;1.86;100.00
63819;BME280;49970;54.976;73.248;2024-03-29T02:25:13;98692.69;;;1.77;100.00
63819;BME280;49970;54.976;73.248;2024-03-29T02:27:39;98698.94;;;1.74;100.00
63819;BME280;49970;54.976;73.248;2024-03-29T02:30:06;98706.22;;;1.69;100.00
63819;BME280;49970;54.976;73.248;2024-03-29T02:32:33;98707.03;;;1.69;100.00
63819;BME280;49970;54.976;73.248;2024-03-29T02:34:59;98702.75;;;1.68;100.00
63819;BME280;49970;54.976;73.248;2024-03-29T02:37:25;98708.06;;;1.67;100.00
63819;BME280;49970;54.976;73.248;2024-03-29T02:39:52;98709.81;;;1.66;100.00
63819;BME280;49970;54.976;73.248;2024-03-29T02:42:18;98710.75;;;1.65;100.00
63819;BME280;49970;54.976;73.248;2024-03-29T02:44:46;98708.44;;;1.61;100.00
63819;BME280;49970;54.976;73.248;2024-03-29T02:47:27;98710.88;;;1.64;100.00
63819;BME280;49970;54.976;73.248;2024-03-29T02:49:54;98710.88;;;1.64;100.00
63819;BME280;49970;54.976;73.248;2024-03-29T02:52:20;98717.94;;;1.62;100.00
63819;BME280;49970;54.976;73.248;2024-03-29T02:54:47;98716.25;;;1.61;100.00
63819;BME280;49970;54.976;73.248;2024-03-29T02:57:13;98715.50;;;1.59;100.00
63819;BME280;49970;54.976;73.248;2024-03-29T02:59:40;98719.16;;;1.56;100.00
63819;BME280;49970;54.976;73.248;2024-03-29T03:02:06;98718.38;;;1.54;100.00
63819;BME280;49970;54.976;73.248;2024-03-29T03:04:32;98733.59;;;1.47;100.00
63819;BME280;49970;54.976;73.248;2024-03-29T03:07:08;98730.31;;;1.44;100.00
63819;BME280;49970;54.976;73.248;2024-03-29T03:09:53;98732.94;;;1.44;100.00
63819;BME280;49970;54.976;73.248;2024-03-29T03:12:38;98729.94;;;1.36;100.00
63819;BME280;49970;54.976;73.248;2024-03-29T03:15:05;98735.81;;;1.39;100.00
63819;BME280;49970;54.976;73.248;2024-03-29T03:17:31;98748.69;;;1.42;100.00
63819;BME280;49970;54.976;73.248;2024-03-29T03:19:58;98743.38;;;1.44;100.00
63819;BME280;49970;54.976;73.248;2024-03-29T03:22:24;98744.19;;;1.44;100.00
63819;BME280;49970;54.976;73.248;2024-03-29T03:24:51;98754.34;;;1.49;100.00
63819;BME280;49970;54.976;73.248;2024-03-29T03:27:17;98748.41;;;1.47;100.00
63819;BME280;49970;54.976;73.248;2024-03-29T03:29:45;98755.19;;;1.49;100.00
63819;BME280;49970;54.976;73.248;2024-03-29T03:32:11;98758.00;;;1.46;100.00
63819;BME280;49970;54.976;73.248;2024-03-29T03:34:37;98765.72;;;1.48;100.00
63819;BME280;49970;54.976;73.248;2024-03-29T03:37:03;98762.47;;;1.44;100.00
63819;BME280;49970;54.976;73.248;2024-03-29T03:39:30;98768.44;;;1.46;100.00
63819;BME280;49970;54.976;73.248;2024-03-29T03:41:56;98780.63;;;1.46;100.00
63819;BME280;49970;54.976;73.248;2024-03-29T03:44:23;98771.97;;;1.45;100.00
63819;BME280;49970;54.976;73.248;2024-03-29T03:46:51;98778.94;;;1.45;100.00
63819;BME280;49970;54.976;73.248;2024-03-29T03:49:18;98784.16;;;1.45;100.00
63819;BME280;49970;54.976;73.248;2024-03-29T03:51:44;98783.22;;;1.46;100.00
63819;BME280;49970;54.976;73.248;2024-03-29T03:54:10;98775.50;;;1.44;100.00
63819;BME280;49970;54.976;73.248;2024-03-29T03:56:37;98785.66;;;1.49;100.00
63819;BME280;49970;54.976;73.248;2024-03-29T03:59:03;98777.28;;;1.44;100.00
63819;BME280;49970;54.976;73.248;2024-03-29T04:01:29;98787.28;;;1.52;100.00
63819;BME280;49970;54.976;73.248;2024-03-29T04:03:56;98795.94;;;1.52;100.00
63819;BME280;49970;54.976;73.248;2024-03-29T04:06:22;98798.44;;;1.54;100.00
63819;BME280;49970;54.976;73.248;2024-03-29T04:08:48;98805.16;;;1.58;100.00
63819;BME280;49970;54.976;73.248;2024-03-29T04:11:15;98806.84;;;1.59;100.00
63819;BME280;49970;54.976;73.248;2024-03-29T04:13:42;98812.66;;;1.64;100.00
63819;BME280;49970;54.976;73.248;2024-03-29T04:16:09;98813.31;;;1.67;100.00
63819;BME280;49970;54.976;73.248;2024-03-29T04:18:35;98813.22;;;1.69;100.00
63819;BME280;49970;54.976;73.248;2024-03-29T04:21:02;98802.66;;;1.70;100.00
63819;BME280;49970;54.976;73.248;2024-03-29T04:23:30;98813.78;;;1.74;100.00
63819;BME280;49970;54.976;73.248;2024-03-29T04:25:57;98804.16;;;1.74;100.00
63819;BME280;49970;54.976;73.248;2024-03-29T04:28:25;98814.44;;;1.78;100.00
63819;BME280;49970;54.976;73.248;2024-03-29T04:30:56;98816.88;;;1.81;100.00
63819;BME280;49970;54.976;73.248;2024-03-29T04:33:23;98815.84;;;1.83;100.00
63819;BME280;49970;54.976;73.248;2024-03-29T04:35:56;98815.84;;;1.83;100.00
63819;BME280;49970;54.976;73.248;2024-03-29T04:38:23;98813.22;;;1.83;100.00
63819;BME280;49970;54.976;73.248;2024-03-29T04:40:52;98822.84;;;1.83;100.00
63819;BME280;49970;54.976;73.248;2024-03-29T04:43:19;98824.78;;;1.79;100.00
63819;BME280;49970;54.976;73.248;2024-03-29T04:45:45;98814.06;;;1.69;99.70
63819;BME280;49970;54.976;73.248;2024-03-29T04:48:12;98814.31;;;1.65;100.00
63819;BME280;49970;54.976;73.248;2024-03-29T04:50:39;98830.09;;;1.78;100.00
63819;BME280;49970;54.976;73.248;2024-03-29T04:53:06;98815.72;;;1.70;99.79
63819;BME280;49970;54.976;73.248;2024-03-29T04:55:34;98829.25;;;1.77;99.73
63819;BME280;49970;54.976;73.248;2024-03-29T04:58:02;98840.44;;;1.79;99.71
63819;BME280;49970;54.976;73.248;2024-03-29T05:00:28;98833.56;;;1.78;99.39
63819;BME280;49970;54.976;73.248;2024-03-29T05:03:16;98844.81;;;1.79;99.21
63819;BME280;49970;54.976;73.248;2024-03-29T05:05:43;98843.88;;;1.80;99.14
63819;BME280;49970;54.976;73.248;2024-03-29T05:08:23;98836.34;;;1.75;98.73
63819;BME280;49970;54.976;73.248;2024-03-29T05:10:50;98857.03;;;1.78;98.70
63819;BME280;49970;54.976;73.248;2024-03-29T05:13:17;98859.56;;;1.80;98.82
63819;BME280;49970;54.976;73.248;2024-03-29T05:15:49;98869.94;;;1.81;98.27
63819;BME280;49970;54.976;73.248;2024-03-29T05:18:15;98866.28;;;1.84;98.51
63819;BME280;49970;54.976;73.248;2024-03-29T05:20:41;98868.06;;;1.83;98.49
63819;BME280;49970;54.976;73.248;2024-03-29T05:23:14;98867.16;;;1.84;98.23
63819;BME280;49970;54.976;73.248;2024-03-29T05:25:43;98865.16;;;1.88;98.12
63819;BME280;49970;54.976;73.248;2024-03-29T05:28:10;98864.25;;;1.89;97.70
63819;BME280;49970;54.976;73.248;2024-03-29T05:30:36;98864.00;;;1.93;97.52
63819;BME280;49970;54.976;73.248;2024-03-29T05:33:04;98868.00;;;1.99;97.29
63819;BME280;49970;54.976;73.248;2024-03-29T05:35:30;98868.56;;;2.04;97.25
63819;BME280;49970;54.976;73.248;2024-03-29T05:37:58;98876.03;;;2.10;96.70
63819;BME280;49970;54.976;73.248;2024-03-29T05:40:24;98865.44;;;2.13;96.48
63819;BME280;49970;54.976;73.248;2024-03-29T05:42:54;98877.09;;;2.22;96.49
63819;BME280;49970;54.976;73.248;2024-03-29T05:45:28;98879.22;;;2.30;96.10
63819;BME280;49970;54.976;73.248;2024-03-29T05:47:56;98881.84;;;2.44;96.63
63819;BME280;49970;54.976;73.248;2024-03-29T05:50:24;98883.06;;;2.53;95.27
63819;BME280;49970;54.976;73.248;2024-03-29T05:52:51;98888.78;;;2.59;95.28
63819;BME280;49970;54.976;73.248;2024-03-29T05:55:18;98889.97;;;2.54;93.66
63819;BME280;49970;54.976;73.248;2024-03-29T05:57:45;98897.34;;;2.61;93.67
63819;BME280;49970;54.976;73.248;2024-03-29T06:00:12;98897.72;;;2.69;92.92
63819;BME280;49970;54.976;73.248;2024-03-29T06:02:42;98902.00;;;2.70;92.37
63819;BME280;49970;54.976;73.248;2024-03-29T06:05:11;98897.81;;;2.68;91.86
63819;BME280;49970;54.976;73.248;2024-03-29T06:07:37;98901.81;;;2.73;91.36
63819;BME280;49970;54.976;73.248;2024-03-29T06:10:04;98907.59;;;2.79;91.55
63819;BME280;49970;54.976;73.248;2024-03-29T06:12:34;98920.88;;;2.90;91.21
63819;BME280;49970;54.976;73.248;2024-03-29T06:15:05;98917.56;;;3.00;90.50
63819;BME280;49970;54.976;73.248;2024-03-29T06:17:50;98911.03;;;3.08;89.68
63819;BME280;49970;54.976;73.248;2024-03-29T06:20:17;98911.78;;;3.10;88.92
63819;BME280;49970;54.976;73.248;2024-03-29T06:22:43;98919.34;;;3.14;88.35
63819;BME280;49970;54.976;73.248;2024-03-29T06:25:10;98925.41;;;3.15;88.47
63819;BME280;49970;54.976;73.248;2024-03-29T06:27:36;98926.34;;;3.14;87.80
63819;BME280;49970;54.976;73.248;2024-03-29T06:30:06;98931.66;;;3.12;87.67
63819;BME280;49970;54.976;73.248;2024-03-29T06:32:34;98938.97;;;3.07;87.78
63819;BME280;49970;54.976;73.248;2024-03-29T06:35:01;98934.47;;;3.09;87.75
63819;BME280;49970;54.976;73.248;2024-03-29T06:37:27;98937.53;;;3.16;87.25
63819;BME280;49970;54.976;73.248;2024-03-29T06:39:54;98939.22;;;3.17;87.48
63819;BME280;49970;54.976;73.248;2024-03-29T06:42:21;98936.53;;;3.18;87.43
63819;BME280;49970;54.976;73.248;2024-03-29T06:44:48;98935.69;;;3.18;87.29
63819;BME280;49970;54.976;73.248;2024-03-29T06:47:14;98942.41;;;3.22;87.31
63819;BME280;49970;54.976;73.248;2024-03-29T06:49:40;98933.44;;;3.26;87.26
63819;BME280;49970;54.976;73.248;2024-03-29T06:52:07;98937.31;;;3.33;86.54
63819;BME280;49970;54.976;73.248;2024-03-29T06:54:33;98942.91;;;3.41;86.16
63819;BME280;49970;54.976;73.248;2024-03-29T06:57:00;98934.97;;;3.43;86.45
63819;BME280;49970;54.976;73.248;2024-03-29T06:59:26;98942.91;;;3.41;86.14
63819;BME280;49970;54.976;73.248;2024-03-29T07:01:53;98940.47;;;3.38;85.27
63819;BME280;49970;54.976;73.248;2024-03-29T07:04:22;98939.94;;;3.33;85.42
63819;BME280;49970;54.976;73.248;2024-03-29T07:06:52;98952.19;;;3.33;85.18
63819;BME280;49970;54.976;73.248;2024-03-29T07:09:20;98947.19;;;3.42;85.18
63819;BME280;49970;54.976;73.248;2024-03-29T07:11:49;98947.66;;;3.49;85.02
63819;BME280;49970;54.976;73.248;2024-03-29T07:14:16;98949.44;;;3.48;84.56
63819;BME280;49970;54.976;73.248;2024-03-29T07:16:44;98948.50;;;3.49;85.04
63819;BME280;49970;54.976;73.248;2024-03-29T07:19:11;98946.94;;;3.47;85.16
63819;BME280;49970;54.976;73.248;2024-03-29T07:21:39;98951.13;;;3.49;85.11
63819;BME280;49970;54.976;73.248;2024-03-29T07:24:06;98957.59;;;3.44;85.49
63819;BME280;49970;54.976;73.248;2024-03-29T07:26:33;98955.34;;;3.38;85.01
63819;BME280;49970;54.976;73.248;2024-03-29T07:28:59;98956.28;;;3.37;85.92
63819;BME280;49970;54.976;73.248;2024-03-29T07:31:26;98951.34;;;3.32;85.73
63819;BME280;49970;54.976;73.248;2024-03-29T07:33:53;98953.56;;;3.38;85.86
63819;BME280;49970;54.976;73.248;2024-03-29T07:36:19;98953.50;;;3.40;85.14
63819;BME280;49970;54.976;73.248;2024-03-29T07:38:46;98950.69;;;3.43;85.41
63819;BME280;49970;54.976;73.248;2024-03-29T07:41:12;98953.50;;;3.40;84.73
63819;BME280;49970;54.976;73.248;2024-03-29T07:43:40;98963.66;;;3.44;84.82
63819;BME280;49970;54.976;73.248;2024-03-29T07:46:07;98946.38;;;3.42;84.40
63819;BME280;49970;54.976;73.248;2024-03-29T07:48:35;98960.16;;;3.31;84.74
63819;BME280;49970;54.976;73.248;2024-03-29T07:51:02;98949.88;;;3.28;84.73
63819;BME280;49970;54.976;73.248;2024-03-29T07:53:30;98964.84;;;3.26;85.09
63819;BME280;49970;54.976;73.248;2024-03-29T07:55:57;98966.50;;;3.27;84.75
63819;BME280;49970;54.976;73.248;2024-03-29T07:58:23;98969.13;;;3.27;85.14
63819;BME280;49970;54.976;73.248;2024-03-29T08:00:52;98958.44;;;3.30;84.87
63819;BME280;49970;54.976;73.248;2024-03-29T08:03:20;98962.94;;;3.28;84.48
63819;BME280;49970;54.976;73.248;2024-03-29T08:08:26;98962.19;;;3.40;84.15
63819;BME280;49970;54.976;73.248;2024-03-29T08:10:53;98970.69;;;3.44;84.50
63819;BME280;49970;54.976;73.248;2024-03-29T08:13:20;98967.94;;;3.45;84.16
63819;BME280;49970;54.976;73.248;2024-03-29T08:15:48;98966.38;;;3.43;83.85
63819;BME280;49970;54.976;73.248;2024-03-29T08:18:14;98966.28;;;3.44;84.35
63819;BME280;49970;54.976;73.248;2024-03-29T08:20:41;98976.84;;;3.43;83.38
63819;BME280;49970;54.976;73.248;2024-03-29T08:23:08;98974.50;;;3.38;83.49
63819;BME280;49970;54.976;73.248;2024-03-29T08:25:34;98972.84;;;3.37;84.13
63819;BME280;49970;54.976;73.248;2024-03-29T08:28:00;98969.19;;;3.40;84.27
63819;BME280;49970;54.976;73.248;2024-03-29T08:30:27;98969.28;;;3.38;84.04
63819;BME280;49970;54.976;73.248;2024-03-29T08:33:03;98969.09;;;3.41;83.63
63819;BME280;49970;54.976;73.248;2024-03-29T08:35:31;98976.84;;;3.43;83.34
63819;BME280;49970;54.976;73.248;2024-03-29T08:37:59;98983.84;;;3.42;83.48
63819;BME280;49970;54.976;73.248;2024-03-29T08:40:28;98970.13;;;3.39;83.64
63819;BME280;49970;54.976;73.248;2024-03-29T08:42:55;98975.06;;;3.43;83.00
63819;BME280;49970;54.976;73.248;2024-03-29T08:45:22;98980.59;;;3.39;82.65
63819;BME280;49970;54.976;73.248;2024-03-29T08:47:49;98986.09;;;3.34;82.90
63819;BME280;49970;54.976;73.248;2024-03-29T08:50:15;98977.63;;;3.31;82.80
63819;BME280;49970;54.976;73.248;2024-03-29T08:52:42;98986.31;;;3.31;83.06
63819;BME280;49970;54.976;73.248;2024-03-29T08:55:10;98988.66;;;3.36;83.48
63819;BME280;49970;54.976;73.248;2024-03-29T08:57:37;98989.19;;;3.41;83.33
63819;BME280;49970;54.976;73.248;2024-03-29T09:00:03;99000.41;;;3.43;83.47
63819;BME280;49970;54.976;73.248;2024-03-29T09:02:30;98989.06;;;3.42;83.22
63819;BME280;49970;54.976;73.248;2024-03-29T09:04:57;98990.22;;;3.38;82.63
63819;BME280;49970;54.976;73.248;2024-03-29T09:07:24;98999.19;;;3.34;82.59
63819;BME280;49970;54.976;73.248;2024-03-29T09:09:50;99003.97;;;3.28;82.69
63819;BME280;49970;54.976;73.248;2024-03-29T09:12:17;99013.78;;;3.24;82.84
63819;BME280;49970;54.976;73.248;2024-03-29T09:14:45;99010.63;;;3.19;82.67
63819;BME280;49970;54.976;73.248;2024-03-29T09:17:19;99016.50;;;3.22;83.14
63819;BME280;49970;54.976;73.248;2024-03-29T09:19:45;99014.63;;;3.24;82.75
63819;BME280;49970;54.976;73.248;2024-03-29T09:22:11;99020.81;;;3.23;83.26
63819;BME280;49970;54.976;73.248;2024-03-29T09:24:38;99019.22;;;3.21;83.03
63819;BME280;49970;54.976;73.248;2024-03-29T09:27:17;99016.88;;;3.16;83.30
63819;BME280;49970;54.976;73.248;2024-03-29T09:29:47;99022.28;;;3.13;83.13
63819;BME280;49970;54.976;73.248;2024-03-29T09:32:15;99009.22;;;3.13;83.46
63819;BME280;49970;54.976;73.248;2024-03-29T09:34:43;99009.88;;;3.03;83.35
63819;BME280;49970;54.976;73.248;2024-03-29T09:37:10;99016.97;;;3.00;83.75
63819;BME280;49970;54.976;73.248;2024-03-29T09:39:36;99023.91;;;3.02;84.03
63819;BME280;49970;54.976;73.248;2024-03-29T09:42:03;99028.38;;;2.99;84.23
63819;BME280;49970;54.976;73.248;2024-03-29T09:44:32;99029.97;;;3.02;84.34
63819;BME280;49970;54.976;73.248;2024-03-29T09:47:02;99032.38;;;3.05;84.49
63819;BME280;49970;54.976;73.248;2024-03-29T09:49:32;99030.53;;;3.07;84.41
63819;BME280;49970;54.976;73.248;2024-03-29T09:51:59;99030.41;;;3.09;83.90
63819;BME280;49970;54.976;73.248;2024-03-29T09:54:34;99025.94;;;3.39;84.13
63819;BME280;49970;54.976;73.248;2024-03-29T09:57:01;99039.09;;;3.38;84.25
63819;BME280;49970;54.976;73.248;2024-03-29T09:59:28;99038.56;;;3.33;83.80
63819;BME280;49970;54.976;73.248;2024-03-29T10:01:55;99038.84;;;3.28;84.11
63819;BME280;49970;54.976;73.248;2024-03-29T10:04:23;99033.78;;;3.25;84.35
63819;BME280;49970;54.976;73.248;2024-03-29T10:06:51;99038.09;;;3.26;84.33
63819;BME280;49970;54.976;73.248;2024-03-29T10:09:18;99038.28;;;3.23;83.82
63819;BME280;49970;54.976;73.248;2024-03-29T10:11:45;99039.31;;;3.20;83.89
63819;BME280;49970;54.976;73.248;2024-03-29T10:14:13;99035.66;;;3.23;83.97
63819;BME280;49970;54.976;73.248;2024-03-29T10:16:39;99043.03;;;3.16;83.92
63819;BME280;49970;54.976;73.248;2024-03-29T10:19:07;99036.78;;;3.19;84.03
63819;BME280;49970;54.976;73.248;2024-03-29T10:21:34;99039.47;;;3.17;83.93
63819;BME280;49970;54.976;73.248;2024-03-29T10:24:12;99046.50;;;3.17;84.09
63819;BME280;49970;54.976;73.248;2024-03-29T10:26:41;99042.19;;;3.16;83.81
63819;BME280;49970;54.976;73.248;2024-03-29T10:29:08;99042.84;;;3.19;83.93
63819;BME280;49970;54.976;73.248;2024-03-29T10:31:43;99049.03;;;3.18;83.81
63819;BME280;49970;54.976;73.248;2024-03-29T10:34:10;99047.44;;;3.16;83.52
63819;BME280;49970;54.976;73.248;2024-03-29T10:36:36;99057.91;;;3.16;83.62
63819;BME280;49970;54.976;73.248;2024-03-29T10:39:11;99046.94;;;3.09;83.71
63819;BME280;49970;54.976;73.248;2024-03-29T10:41:42;99050.34;;;3.11;84.15
63819;BME280;49970;54.976;73.248;2024-03-29T10:44:10;99058.06;;;3.13;83.88
63819;BME280;49970;54.976;73.248;2024-03-29T10:46:40;99053.78;;;3.12;84.05
63819;BME280;49970;54.976;73.248;2024-03-29T10:49:15;99059.97;;;3.11;84.33
63819;BME280;49970;54.976;73.248;2024-03-29T10:51:43;99061.75;;;3.10;84.44
63819;BME280;49970;54.976;73.248;2024-03-29T10:54:12;99064.25;;;3.12;84.17
63819;BME280;49970;54.976;73.248;2024-03-29T10:56:42;99056.59;;;3.09;84.25
63819;BME280;49970;54.976;73.248;2024-03-29T10:59:40;99067.88;;;3.09;84.06
63819;BME280;49970;54.976;73.248;2024-03-29T11:02:12;99066.31;;;3.07;83.61
63819;BME280;49970;54.976;73.248;2024-03-29T11:05:02;99068.38;;;3.02;84.08
63819;BME280;49970;54.976;73.248;2024-03-29T11:08:38;99066.09;;;2.95;83.84
63819;BME280;49970;54.976;73.248;2024-03-29T11:11:51;99066.03;;;2.97;83.83
63819;BME280;49970;54.976;73.248;2024-03-29T11:14:42;99071.25;;;2.97;83.47
63819;BME280;49970;54.976;73.248;2024-03-29T11:18:17;99064.44;;;2.94;83.39
63819;BME280;49970;54.976;73.248;2024-03-29T11:21:05;99074.06;;;2.94;83.32
63819;BME280;49970;54.976;73.248;2024-03-29T11:23:34;99066.28;;;2.92;83.92
63819;BME280;49970;54.976;73.248;2024-03-29T11:26:01;99071.44;;;2.94;83.68
63819;BME280;49970;54.976;73.248;2024-03-29T11:31:02;99074.88;;;2.94;83.29
63819;BME280;49970;54.976;73.248;2024-03-29T11:36:12;99069.66;;;2.94;83.87
63819;BME280;49970;54.976;73.248;2024-03-29T11:38:40;99071.34;;;2.95;83.46
63819;BME280;49970;54.976;73.248;2024-03-29T11:41:16;99079.00;;;2.98;83.87
63819;BME280;49970;54.976;73.248;2024-03-29T11:43:43;99068.72;;;2.95;83.17
63819;BME280;49970;54.976;73.248;2024-03-29T11:46:30;99070.50;;;2.95;83.60
63819;BME280;49970;54.976;73.248;2024-03-29T11:49:41;99070.66;;;2.92;83.31
63819;BME280;49970;54.976;73.248;2024-03-29T11:52:07;99068.91;;;2.92;83.50
63819;BME280;49970;54.976;73.248;2024-03-29T11:54:38;99074.22;;;2.91;83.45
63819;BME280;49970;54.976;73.248;2024-03-29T11:57:25;99072.28;;;2.94;83.62
63819;BME280;49970;54.976;73.248;2024-03-29T12:00:56;99071.78;;;2.88;83.57
63819;BME280;49970;54.976;73.248;2024-03-29T12:04:27;99080.00;;;2.82;83.44
63819;BME280;49970;54.976;73.248;2024-03-29T12:08:00;99074.00;;;2.80;83.72
63819;BME280;49970;54.976;73.248;2024-03-29T12:11:11;99070.66;;;2.78;83.73
63819;BME280;49970;54.976;73.248;2024-03-29T12:13:37;99071.13;;;2.84;83.92
63819;BME280;49970;54.976;73.248;2024-03-29T12:16:07;99076.28;;;2.86;84.26
63819;BME280;49970;54.976;73.248;2024-03-29T12:18:34;99076.28;;;2.86;84.25
63819;BME280;49970;54.976;73.248;2024-03-29T12:21:02;99071.22;;;2.83;84.11
63819;BME280;49970;54.976;73.248;2024-03-29T12:23:29;99073.66;;;2.86;84.08
63819;BME280;49970;54.976;73.248;2024-03-29T12:26:16;99071.22;;;2.83;84.43
63819;BME280;49970;54.976;73.248;2024-03-29T12:28:49;99066.28;;;2.78;84.56
63819;BME280;49970;54.976;73.248;2024-03-29T12:31:19;99067.22;;;2.77;84.88
63819;BME280;49970;54.976;73.248;2024-03-29T12:33:52;99069.06;;;2.75;84.90
63819;BME280;49970;54.976;73.248;2024-03-29T12:36:23;99062.16;;;2.74;85.21
63819;BME280;49970;54.976;73.248;2024-03-29T12:38:49;99065.78;;;2.71;85.38
63819;BME280;49970;54.976;73.248;2024-03-29T12:41:18;99062.53;;;2.68;85.29
63819;BME280;49970;54.976;73.248;2024-03-29T12:43:45;99061.59;;;2.69;85.40
63819;BME280;49970;54.976;73.248;2024-03-29T12:46:11;99060.34;;;2.60;85.34
63819;BME280;49970;54.976;73.248;2024-03-29T12:48:38;99065.31;;;2.65;85.63
63819;BME280;49970;54.976;73.248;2024-03-29T12:51:06;99072.22;;;2.66;85.69
63819;BME280;49970;54.976;73.248;2024-03-29T12:53:33;99071.56;;;2.62;85.68
63819;BME280;49970;54.976;73.248;2024-03-29T12:55:59;99059.03;;;2.53;86.14
63819;BME280;49970;54.976;73.248;2024-03-29T12:58:26;99066.59;;;2.58;86.23
63819;BME280;49970;54.976;73.248;2024-03-29T13:00:53;99064.91;;;2.57;86.51
63819;BME280;49970;54.976;73.248;2024-03-29T13:03:20;99070.31;;;2.54;87.08
63819;BME280;49970;54.976;73.248;2024-03-29T13:05:46;99066.19;;;2.49;87.25
63819;BME280;49970;54.976;73.248;2024-03-29T13:08:14;99070.84;;;2.44;87.22
63819;BME280;49970;54.976;73.248;2024-03-29T13:10:44;99069.25;;;2.42;87.84
63819;BME280;49970;54.976;73.248;2024-03-29T13:13:11;99073.56;;;2.43;87.88
63819;BME280;49970;54.976;73.248;2024-03-29T13:15:57;99078.19;;;2.38;88.16
63819;BME280;49970;54.976;73.248;2024-03-29T13:18:24;99080.06;;;2.36;88.21
63819;BME280;49970;54.976;73.248;2024-03-29T13:21:10;99077.63;;;2.33;88.47
63819;BME280;49970;54.976;73.248;2024-03-29T13:23:36;99077.78;;;2.30;88.71
63819;BME280;49970;54.976;73.248;2024-03-29T13:26:21;99088.34;;;2.28;88.60
63819;BME280;49970;54.976;73.248;2024-03-29T13:28:54;99071.25;;;2.22;88.83
63819;BME280;49970;54.976;73.248;2024-03-29T13:31:20;99080.75;;;2.23;88.80